createdAt,value
2022-11-04T00:04:10.449Z,54.68214
2022-11-04T00:09:12.309Z,55.82362
2022-11-04T00:14:13.933Z,56.34135
2022-11-04T00:19:15.574Z,56.91865
2022-11-04T00:24:17.386Z,57.90526
2022-11-04T00:29:19.086Z,57.90334
2022-11-04T00:34:20.736Z,56.73537
2022-11-04T00:39:22.439Z,56.29305
2022-11-04T00:44:24.201Z,56.85166
2022-11-04T00:49:25.844Z,57.88765
2022-11-04T00:54:27.483Z,57.886
2022-11-04T00:59:29.126Z,57.99508
2022-11-04T01:04:30.758Z,58.12955
2022-11-04T01:09:32.465Z,57.43721
2022-11-04T01:14:34.101Z,56.21392
2022-11-04T01:19:35.732Z,58.35592
2022-11-04T01:24:37.535Z,59.19519
2022-11-04T01:29:39.153Z,61.55949
2022-11-04T01:34:43.512Z,62.29845
2022-11-04T01:39:45.505Z,63.71629
2022-11-04T01:44:47.224Z,62.99903
2022-11-04T01:49:48.936Z,62.15038
2022-11-04T01:54:50.602Z,63.77931
2022-11-04T01:59:52.328Z,62.07032
2022-11-04T02:04:54.009Z,62.65978
2022-11-04T02:09:55.671Z,61.11889
2022-11-04T02:14:57.426Z,62.06059
2022-11-04T02:19:59.068Z,62.9822
2022-11-04T02:25:00.718Z,61.89732
2022-11-04T02:30:02.520Z,63.65252
2022-11-04T02:35:04.215Z,61.75522
2022-11-04T02:40:05.875Z,62.43742
2022-11-04T02:45:07.557Z,61.7247
2022-11-04T02:50:09.190Z,57.89199
2022-11-04T02:55:10.960Z,57.46994
2022-11-04T03:00:12.607Z,58.78742
2022-11-04T03:05:14.252Z,59.27296
2022-11-04T03:10:15.917Z,60.4417
2022-11-04T03:15:17.714Z,62.04877
2022-11-04T03:20:19.465Z,61.54014
2022-11-04T03:25:21.073Z,60.41641
2022-11-04T03:30:22.736Z,59.61332
2022-11-04T03:35:24.451Z,62.55013
2022-11-04T03:40:26.122Z,60.99864
2022-11-04T03:45:27.767Z,61.28183
2022-11-04T03:50:29.510Z,60.6507
2022-11-04T03:55:31.192Z,59.30232
2022-11-04T04:00:32.922Z,59.50819
2022-11-04T04:05:34.666Z,59.18973
2022-11-04T04:10:36.369Z,60.19531
2022-11-04T04:15:37.980Z,60.18255
2022-11-04T04:20:39.599Z,59.39953
2022-11-04T04:25:41.334Z,61.44289
2022-11-04T04:30:43.132Z,62.04416
2022-11-04T04:35:44.818Z,61.5742
2022-11-04T04:40:46.593Z,61.12302
2022-11-04T04:45:48.303Z,60.184
2022-11-04T04:50:49.927Z,59.20388
2022-11-04T04:55:51.546Z,60.56162
2022-11-04T05:00:53.391Z,59.48252
2022-11-04T05:05:57.893Z,57.94372
2022-11-04T05:11:00.729Z,57.27139
2022-11-04T05:16:02.649Z,58.90938
2022-11-04T05:21:04.278Z,59.77706
2022-11-04T05:26:05.913Z,60.86223
2022-11-04T05:31:07.652Z,61.43869
2022-11-04T05:36:09.316Z,63.73324
2022-11-04T05:41:11.038Z,64.12868
2022-11-04T05:46:12.708Z,65.57714
2022-11-04T05:51:14.390Z,65.87344
2022-11-04T05:56:15.981Z,64.80051
2022-11-04T06:01:17.648Z,66.39519
2022-11-04T06:06:19.327Z,65.84035
2022-11-04T06:11:21.044Z,66.06812
2022-11-04T06:16:22.721Z,66.23312
2022-11-04T06:21:24.355Z,67.10613
2022-11-04T06:26:28.214Z,68.18415
2022-11-04T06:31:30.373Z,68.94082
2022-11-04T06:36:32.117Z,67.72839
2022-11-04T06:41:33.778Z,67.51755
2022-11-04T06:46:35.410Z,66.54375
2022-11-04T06:51:37.073Z,68.46878
2022-11-04T06:56:38.757Z,68.09113
2022-11-04T07:01:40.543Z,69.03233
2022-11-04T07:06:44.124Z,68.07367
2022-11-04T07:11:46.629Z,70.2938
2022-11-04T07:16:48.324Z,70.0508
2022-11-04T07:21:50.071Z,68.82819
2022-11-04T07:26:51.852Z,68.00139
2022-11-04T07:31:53.539Z,65.33306
2022-11-04T07:36:55.182Z,66.07738
2022-11-04T07:41:59.607Z,63.69139
2022-11-04T07:47:01.497Z,65.59092
2022-11-04T07:52:03.094Z,64.68536
2022-11-04T07:57:04.715Z,66.06108
2022-11-04T08:02:06.555Z,67.87173
2022-11-04T08:07:08.352Z,69.39893
2022-11-04T08:12:09.969Z,68.77506
2022-11-04T08:17:11.640Z,68.05748
2022-11-04T08:22:13.298Z,66.37363
2022-11-04T08:27:14.921Z,67.05507
2022-11-04T08:32:16.520Z,68.93818
2022-11-04T08:37:18.165Z,66.97029
2022-11-04T08:42:19.805Z,67.34243
2022-11-04T08:47:21.464Z,67.2767
2022-11-04T08:52:23.129Z,67.13131
2022-11-04T08:57:24.847Z,67.51033
2022-11-04T09:02:26.494Z,70.41116
2022-11-04T09:07:28.140Z,67.69488
2022-11-04T09:12:29.836Z,67.69618
2022-11-04T09:17:31.506Z,65.70948
2022-11-04T09:22:33.138Z,64.951
2022-11-04T09:27:34.803Z,65.15351
2022-11-04T09:32:36.519Z,66.57228
2022-11-04T09:37:38.167Z,66.09944
2022-11-04T09:42:39.842Z,67.67008
2022-11-04T09:47:41.652Z,67.62824
2022-11-04T09:52:43.303Z,67.57073
2022-11-04T09:57:44.911Z,66.01317
2022-11-04T10:02:46.648Z,65.39742
2022-11-04T10:07:48.356Z,65.92745
2022-11-04T10:12:50.026Z,65.68009
2022-11-04T10:17:51.877Z,65.32701
2022-11-04T10:22:53.578Z,67.4902
2022-11-04T10:27:55.233Z,66.67727
2022-11-04T10:32:56.892Z,68.03532
2022-11-04T10:37:58.519Z,66.18642
2022-11-04T10:43:00.273Z,69.22167
2022-11-04T10:48:01.991Z,67.83558
2022-11-04T10:53:03.585Z,69.67886
2022-11-04T10:58:05.205Z,67.39081
2022-11-04T11:03:07.505Z,67.79811
2022-11-04T11:08:09.379Z,69.72018
2022-11-04T11:13:11.375Z,67.91603
2022-11-04T11:18:13.326Z,66.51095
2022-11-04T11:23:15.012Z,66.99683
2022-11-04T11:28:16.670Z,67.34473
2022-11-04T11:33:18.332Z,70.30587
2022-11-04T11:38:20.261Z,67.83588
2022-11-04T11:43:21.883Z,68.64188
2022-11-04T11:48:23.520Z,67.65612
2022-11-04T11:53:25.168Z,67.03459
2022-11-04T12:09:34.480Z,68.35585
2022-11-04T12:14:36.830Z,67.25182
2022-11-04T12:19:38.563Z,68.11944
2022-11-04T12:24:40.418Z,69.46277
2022-11-04T12:29:42.066Z,69.71007
2022-11-04T12:34:43.875Z,68.56874
2022-11-04T12:39:45.474Z,67.25818
2022-11-04T12:44:47.170Z,69.11519
2022-11-04T12:49:48.998Z,67.34984
2022-11-04T12:54:50.769Z,68.41103
2022-11-04T12:59:52.400Z,66.59588
2022-11-04T13:04:54.156Z,68.70513
2022-11-04T13:09:55.870Z,68.51385
2022-11-04T13:14:57.545Z,69.12993
2022-11-04T13:19:59.238Z,70.98511
2022-11-04T13:25:00.882Z,70.40149
2022-11-04T13:30:02.562Z,67.75444
2022-11-04T13:35:04.246Z,68.30266
2022-11-04T13:40:05.905Z,67.35397
2022-11-04T13:45:07.643Z,69.2514
2022-11-04T13:50:09.290Z,67.36795
2022-11-04T13:55:10.984Z,67.6654
2022-11-04T14:00:12.627Z,68.26264
2022-11-04T14:05:14.219Z,68.20646
2022-11-04T14:10:15.964Z,69.47039
2022-11-04T14:15:17.587Z,68.444
2022-11-04T14:20:19.221Z,69.79951
2022-11-04T14:25:21.064Z,70.3101
2022-11-04T14:30:22.913Z,69.47909
2022-11-04T14:35:24.577Z,71.0156
2022-11-04T14:40:26.199Z,68.7007
2022-11-04T14:45:27.937Z,68.92717
2022-11-04T14:50:29.615Z,68.83422
2022-11-04T14:55:31.228Z,71.31228
2022-11-04T15:00:32.850Z,72.18257
2022-11-04T15:05:34.564Z,71.6117
2022-11-04T15:10:36.211Z,71.70169
2022-11-04T15:15:37.875Z,70.3231
2022-11-04T15:20:39.526Z,71.28249
2022-11-04T15:25:41.190Z,71.47268
2022-11-04T15:30:42.817Z,71.60141
2022-11-04T15:35:44.470Z,71.83347
2022-11-04T15:40:46.093Z,70.83051
2022-11-04T15:45:47.806Z,70.65088
2022-11-04T15:50:49.418Z,70.78821
2022-11-04T15:55:51.192Z,70.9339
2022-11-04T16:00:52.856Z,71.31318
2022-11-04T16:05:54.550Z,70.67478
2022-11-04T16:10:56.293Z,70.80715
2022-11-04T16:15:57.977Z,72.14421
2022-11-04T16:20:59.661Z,70.11555
2022-11-04T16:26:01.383Z,68.75464
2022-11-04T16:31:03.027Z,68.22179
2022-11-04T16:36:04.689Z,69.43472
2022-11-04T16:41:06.309Z,68.56972
2022-11-04T16:46:07.962Z,69.71758
2022-11-04T16:51:09.576Z,69.93009
2022-11-04T16:56:11.482Z,70.66427
2022-11-04T17:01:13.291Z,69.72557
2022-11-04T17:06:15.054Z,70.2178
2022-11-04T17:11:16.644Z,69.5828
2022-11-04T17:16:18.254Z,67.61565
2022-11-04T17:21:20.019Z,68.45626
2022-11-04T17:26:21.619Z,67.73286
2022-11-04T17:31:23.334Z,68.80776
2022-11-04T17:36:24.973Z,69.11995
2022-11-04T17:41:26.596Z,68.7536
2022-11-04T17:46:28.211Z,68.27393
2022-11-04T17:51:29.884Z,68.94879
2022-11-04T17:56:31.594Z,67.85578
2022-11-04T18:01:33.387Z,68.97502
2022-11-04T18:06:35.094Z,68.12152
2022-11-04T18:11:36.745Z,68.0062
2022-11-04T18:16:38.471Z,68.60822
2022-11-04T18:21:40.219Z,69.77868
2022-11-04T18:26:41.894Z,68.95922
2022-11-04T18:31:48.739Z,69.68274
2022-11-04T18:36:51.197Z,70.95459
2022-11-04T18:41:52.831Z,71.92397
2022-11-04T18:46:54.472Z,73.12993
2022-11-04T18:51:56.236Z,72.9812
2022-11-04T18:56:57.858Z,72.72129
2022-11-04T19:01:59.606Z,71.61808
2022-11-04T19:07:01.391Z,73.25154
2022-11-04T19:12:03.004Z,71.85224
2022-11-04T19:17:04.695Z,73.24217
2022-11-04T19:22:06.557Z,72.75437
2022-11-04T19:27:08.265Z,72.60629
2022-11-04T19:32:14.187Z,71.5639
2022-11-04T19:37:16.392Z,72.92419
2022-11-04T19:42:18.337Z,72.16092
2022-11-04T19:47:20.079Z,69.87748
2022-11-04T19:52:21.828Z,69.11397
2022-11-04T19:57:23.407Z,70.35711
2022-11-04T20:02:25.240Z,69.81416
2022-11-04T20:07:27.188Z,72.36562
2022-11-04T20:12:28.841Z,69.85993
2022-11-04T20:17:30.489Z,70.40984
2022-11-04T20:22:32.137Z,68.96776
2022-11-04T20:27:33.895Z,69.08156
2022-11-04T20:32:35.538Z,70.56285
2022-11-04T20:37:37.199Z,69.34915
2022-11-04T20:42:38.931Z,71.13584
2022-11-04T20:47:40.583Z,71.61751
2022-11-04T20:52:42.210Z,69.90602
2022-11-04T20:57:43.849Z,69.94059
2022-11-04T21:02:45.736Z,69.64747
2022-11-04T21:07:47.417Z,70.58294
2022-11-04T21:12:49.032Z,70.32023
2022-11-04T21:17:50.732Z,70.5747
2022-11-04T21:22:52.363Z,71.78433
2022-11-04T21:27:54.068Z,71.31603
2022-11-04T21:32:55.918Z,69.94676
2022-11-04T21:37:57.609Z,72.68458
2022-11-04T21:42:59.552Z,70.36201
2022-11-04T21:48:01.217Z,69.80066
2022-11-04T21:53:02.867Z,69.53341
2022-11-04T21:58:04.488Z,71.01567
2022-11-04T22:03:06.152Z,71.69177
2022-11-04T22:08:07.975Z,70.95289
2022-11-04T22:13:09.851Z,74.23256
2022-11-04T22:18:11.743Z,74.61867
2022-11-04T22:23:13.627Z,77.53214
2022-11-04T22:28:15.260Z,75.75822
2022-11-04T22:33:16.923Z,75.76274
2022-11-04T22:38:18.629Z,74.90271
2022-11-04T22:43:20.231Z,74.82067
2022-11-04T22:48:21.894Z,73.4405
2022-11-04T22:53:23.547Z,72.41166
2022-11-04T22:58:25.185Z,72.04261
2022-11-04T23:03:26.829Z,73.63423
2022-11-04T23:08:28.591Z,73.03013
2022-11-04T23:13:30.244Z,73.08363
2022-11-04T23:18:31.867Z,71.44052
2022-11-04T23:23:33.638Z,70.88086
2022-11-04T23:28:35.295Z,71.94874
2022-11-04T23:33:36.963Z,70.62664
2022-11-04T23:38:38.589Z,70.41725
2022-11-04T23:43:40.212Z,71.43253
2022-11-04T23:48:41.842Z,70.54028
2022-11-04T23:53:43.652Z,71.8571
2022-11-04T23:58:45.338Z,70.75234
